Wetterdaten: Woche 12.09.11 - 18.09.11 (KW37)
Datum Zeit Temp. Innen Temp. Aussen UV X Diff Temp. Feuchte Inne Feuchte Auss Sonnenschein Luftdruck Regen ab 0,1 Wind Sonnenschein T Regendauer Windben
12.09.2011 00:00 21,4 C 14,6 C 0,0 UV-I 0,0 C 63 % 91 % 0 % 1010,6 hPa 0,0 l/m 2,5 km/h (1 Bft) 0,00 h 0,00 h 6,3 km/h (2 Bft)
12.09.2011 01:00 21,2 C 14,4 C 0,0 UV-I 0,0 C 63 % 91 % 0 % 1010,8 hPa 0,0 l/m 2,2 km/h (1 Bft) 0,00 h 0,00 h 4,0 km/h (1 Bft)
12.09.2011 02:00 21,0 C 14,4 C 0,0 UV-I 0,0 C 64 % 91 % 0 % 1011,1 hPa 0,0 l/m 2,9 km/h (1 Bft) 0,00 h 0,00 h 4,7 km/h (1 Bft)
12.09.2011 03:00 20,8 C 14,4 C 0,0 UV-I 0,0 C 63 % 91 % 0 % 1011,2 hPa 0,0 l/m 3,1 km/h (1 Bft) 0,00 h 0,00 h 5,3 km/h (1 Bft)
12.09.2011 04:00 20,7 C 14,4 C 0,0 UV-I 0,0 C 63 % 91 % 0 % 1011,2 hPa 0,0 l/m 2,8 km/h (1 Bft) 0,00 h 0,00 h 5,6 km/h (1 Bft)
12.09.2011 05:00 20,6 C 14,0 C 0,0 UV-I 0,0 C 63 % 90 % 0 % 1011,0 hPa 0,0 l/m 2,5 km/h (1 Bft) 0,00 h 0,00 h 5,9 km/h (2 Bft)
12.09.2011 06:00 20,6 C 14,0 C 0,0 UV-I 0,0 C 63 % 90 % 0 % 1010,6 hPa 0,0 l/m 3,7 km/h (1 Bft) 0,00 h 0,00 h 7,1 km/h (2 Bft)
12.09.2011 07:00 20,5 C 14,7 C 0,0 UV-I 0,0 C 63 % 89 % 0 % 1010,4 hPa 0,0 l/m 6,0 km/h (2 Bft) 0,00 h 0,00 h 9,9 km/h (2 Bft)
12.09.2011 08:00 20,7 C 15,1 C 0,1 UV-I 0,4 C 63 % 88 % 11 % 1010,3 hPa 0,0 l/m 5,2 km/h (1 Bft) 0,07 h 0,00 h 8,2 km/h (2 Bft)
12.09.2011 09:00 20,8 C 16,8 C 0,2 UV-I 1,6 C 62 % 83 % 47 % 1009,9 hPa 0,0 l/m 6,4 km/h (2 Bft) 0,10 h 0,00 h 10,6 km/h (2 Bft)
12.09.2011 10:00 21,0 C 18,3 C 0,7 UV-I 2,1 C 60 % 73 % 60 % 1009,7 hPa 0,0 l/m 9,4 km/h (2 Bft) 0,17 h 0,00 h 15,2 km/h (3 Bft)
12.09.2011 11:00 21,3 C 20,2 C 2,4 UV-I 4,0 C 59 % 65 % 91 % 1009,3 hPa 0,0 l/m 11,0 km/h (2 Bft) 0,77 h 0,00 h 16,7 km/h (3 Bft)
12.09.2011 12:00 21,8 C 21,6 C 1,9 UV-I 3,9 C 58 % 61 % 89 % 1009,0 hPa 0,0 l/m 11,5 km/h (2 Bft) 0,73 h 0,00 h 17,1 km/h (3 Bft)
12.09.2011 13:00 22,2 C 21,7 C 1,8 UV-I 2,1 C 57 % 60 % 60 % 1009,2 hPa 0,0 l/m 11,2 km/h (2 Bft) 0,10 h 0,00 h 15,5 km/h (3 Bft)
12.09.2011 14:00 23,0 C 22,4 C 2,2 UV-I 2,9 C 57 % 61 % 78 % 1009,5 hPa 0,0 l/m 12,7 km/h (3 Bft) 0,60 h 0,00 h 16,1 km/h (3 Bft)
12.09.2011 15:00 23,2 C 21,8 C 0,9 UV-I 1,2 C 57 % 65 % 33 % 1009,2 hPa 0,0 l/m 13,4 km/h (3 Bft) 0,00 h 0,00 h 17,9 km/h (3 Bft)
12.09.2011 16:00 23,0 C 20,8 C 0,2 UV-I 0,2 C 59 % 71 % 5 % 1009,3 hPa 0,0 l/m 13,1 km/h (3 Bft) 0,00 h 0,00 h 17,7 km/h (3 Bft)
12.09.2011 17:00 22,7 C 20,3 C 0,0 UV-I 0,0 C 61 % 75 % 0 % 1008,7 hPa 0,0 l/m 11,1 km/h (2 Bft) 0,00 h 0,00 h 15,6 km/h (3 Bft)
12.09.2011 18:00 22,6 C 20,5 C 0,2 UV-I 0,2 C 63 % 76 % 4 % 1008,6 hPa 0,0 l/m 11,8 km/h (2 Bft) 0,00 h 0,00 h 16,4 km/h (3 Bft)
12.09.2011 19:00 22,6 C 20,5 C 0,0 UV-I 0,0 C 64 % 77 % 0 % 1008,6 hPa 0,0 l/m 9,3 km/h (2 Bft) 0,00 h 0,00 h 14,3 km/h (3 Bft)
12.09.2011 20:00 22,4 C 20,4 C 0,0 UV-I 0,0 C 65 % 78 % 0 % 1008,7 hPa 0,0 l/m 9,4 km/h (2 Bft) 0,00 h 0,00 h 14,4 km/h (3 Bft)
12.09.2011 21:00 22,3 C 20,0 C 0,0 UV-I 0,0 C 66 % 79 % 0 % 1009,3 hPa 0,0 l/m 8,2 km/h (2 Bft) 0,00 h 0,00 h 12,5 km/h (3 Bft)
12.09.2011 22:00 22,2 C 19,6 C 0,0 UV-I 0,0 C 66 % 81 % 0 % 1009,9 hPa 0,0 l/m 4,8 km/h (1 Bft) 0,00 h 0,00 h 7,9 km/h (2 Bft)
12.09.2011 23:00 22,1 C 19,2 C 0,0 UV-I 0,0 C 66 % 81 % 0 % 1010,3 hPa 0,0 l/m 7,6 km/h (2 Bft) 0,00 h 0,00 h 11,2 km/h (2 Bft)
13.09.2011 00:00 21,9 C 18,6 C 0,0 UV-I 0,0 C 64 % 77 % 0 % 1010,5 hPa 0,0 l/m 9,5 km/h (2 Bft) 0,00 h 0,00 h 13,1 km/h (3 Bft)
13.09.2011 01:00 21,7 C 17,7 C 0,0 UV-I 0,0 C 63 % 78 % 0 % 1010,6 hPa 0,0 l/m 6,1 km/h (2 Bft) 0,00 h 0,00 h 7,9 km/h (2 Bft)
13.09.2011 02:00 21,5 C 17,0 C 0,0 UV-I 0,0 C 62 % 80 % 0 % 1011,1 hPa 0,0 l/m 6,9 km/h (2 Bft) 0,00 h 0,00 h 10,8 km/h (2 Bft)
13.09.2011 03:00 21,3 C 16,5 C 0,0 UV-I 0,0 C 61 % 80 % 0 % 1011,4 hPa 0,0 l/m 6,1 km/h (2 Bft) 0,00 h 0,00 h 8,0 km/h (2 Bft)
13.09.2011 04:00 21,2 C 16,1 C 0,0 UV-I 0,0 C 60 % 79 % 0 % 1011,4 hPa 0,0 l/m 5,9 km/h (2 Bft) 0,00 h 0,00 h 9,4 km/h (2 Bft)
13.09.2011 05:00 21,0 C 15,2 C 0,0 UV-I 0,0 C 60 % 82 % 0 % 1011,6 hPa 0,0 l/m 2,5 km/h (1 Bft) 0,00 h 0,00 h 4,8 km/h (1 Bft)
13.09.2011 06:00 20,8 C 14,7 C 0,0 UV-I 0,0 C 60 % 84 % 0 % 1011,4 hPa 0,0 l/m 2,5 km/h (1 Bft) 0,00 h 0,00 h 5,3 km/h (1 Bft)
13.09.2011 07:00 20,7 C 14,6 C 0,0 UV-I 0,0 C 60 % 85 % 0 % 1011,8 hPa 0,0 l/m 4,0 km/h (1 Bft) 0,00 h 0,00 h 7,1 km/h (2 Bft)
13.09.2011 08:00 20,5 C 14,9 C 0,1 UV-I 0,6 C 60 % 83 % 16 % 1011,9 hPa 0,0 l/m 4,3 km/h (1 Bft) 0,13 h 0,00 h 8,0 km/h (2 Bft)
13.09.2011 09:00 20,6 C 16,2 C 0,5 UV-I 5,4 C 59 % 78 % 100 % 1011,8 hPa 0,0 l/m 6,6 km/h (2 Bft) 1,00 h 0,00 h 8,8 km/h (2 Bft)
13.09.2011 10:00 20,7 C 17,6 C 1,6 UV-I 5,7 C 59 % 72 % 100 % 1011,9 hPa 0,0 l/m 8,4 km/h (2 Bft) 1,00 h 0,00 h 12,4 km/h (3 Bft)
13.09.2011 11:00 20,8 C 18,4 C 2,7 UV-I 4,6 C 58 % 67 % 100 % 1012,1 hPa 0,0 l/m 10,2 km/h (2 Bft) 1,00 h 0,00 h 15,3 km/h (3 Bft)
13.09.2011 12:00 21,2 C 19,2 C 2,3 UV-I 3,9 C 57 % 64 % 96 % 1012,3 hPa 0,0 l/m 9,9 km/h (2 Bft) 0,93 h 0,00 h 15,5 km/h (3 Bft)
13.09.2011 13:00 21,7 C 19,4 C 2,5 UV-I 3,2 C 55 % 63 % 83 % 1012,5 hPa 0,0 l/m 9,6 km/h (2 Bft) 0,50 h 0,00 h 13,5 km/h (3 Bft)
13.09.2011 14:00 22,3 C 19,7 C 2,0 UV-I 3,2 C 54 % 62 % 83 % 1012,9 hPa 0,0 l/m 7,6 km/h (2 Bft) 0,53 h 0,00 h 10,2 km/h (2 Bft)
13.09.2011 15:00 22,6 C 19,7 C 1,2 UV-I 2,1 C 52 % 59 % 59 % 1013,2 hPa 0,0 l/m 7,6 km/h (2 Bft) 0,27 h 0,00 h 11,8 km/h (2 Bft)
13.09.2011 16:00 23,0 C 20,0 C 2,4 UV-I 2,5 C 51 % 58 % 71 % 1013,0 hPa 0,0 l/m 6,2 km/h (2 Bft) 0,30 h 0,00 h 9,1 km/h (2 Bft)
13.09.2011 17:00 23,6 C 19,9 C 1,3 UV-I 2,2 C 50 % 60 % 61 % 1013,0 hPa 0,0 l/m 4,3 km/h (1 Bft) 0,20 h 0,00 h 6,8 km/h (2 Bft)
13.09.2011 18:00 23,1 C 19,1 C 0,2 UV-I 0,3 C 51 % 65 % 9 % 1013,1 hPa 0,0 l/m 4,5 km/h (1 Bft) 0,00 h 0,00 h 8,1 km/h (2 Bft)
13.09.2011 19:00 22,6 C 18,1 C 0,0 UV-I 0,0 C 52 % 66 % 0 % 1012,3 hPa 0,0 l/m 3,7 km/h (1 Bft) 0,00 h 0,00 h 6,3 km/h (2 Bft)
13.09.2011 20:00 22,1 C 16,8 C 0,0 UV-I 0,0 C 52 % 69 % 0 % 1012,3 hPa 0,0 l/m 2,4 km/h (1 Bft) 0,00 h 0,00 h 4,5 km/h (1 Bft)
13.09.2011 21:00 21,6 C 16,3 C 0,0 UV-I 0,0 C 52 % 70 % 0 % 1012,4 hPa 0,0 l/m 4,1 km/h (1 Bft) 0,00 h 0,00 h 7,6 km/h (2 Bft)
13.09.2011 22:00 21,3 C 16,2 C 0,0 UV-I 0,0 C 53 % 71 % 0 % 1012,6 hPa 0,0 l/m 4,3 km/h (1 Bft) 0,00 h 0,00 h 7,2 km/h (2 Bft)
13.09.2011 23:00 21,5 C 15,8 C 0,0 UV-I 0,0 C 54 % 70 % 0 % 1013,0 hPa 0,0 l/m 5,6 km/h (1 Bft) 0,00 h 0,00 h 9,7 km/h (2 Bft)
14.09.2011 00:00 21,5 C 15,2 C 0,0 UV-I 0,0 C 54 % 71 % 0 % 1013,1 hPa 0,0 l/m 5,1 km/h (1 Bft) 0,00 h 0,00 h 8,4 km/h (2 Bft)
14.09.2011 01:00 21,3 C 14,5 C 0,0 UV-I 0,0 C 54 % 75 % 0 % 1013,4 hPa 0,0 l/m 5,8 km/h (2 Bft) 0,00 h 0,00 h 9,9 km/h (2 Bft)
14.09.2011 02:00 21,2 C 13,7 C 0,0 UV-I 0,0 C 54 % 78 % 0 % 1013,9 hPa 0,0 l/m 4,1 km/h (1 Bft) 0,00 h 0,00 h 5,6 km/h (1 Bft)
14.09.2011 03:00 21,1 C 13,3 C 0,0 UV-I 0,0 C 55 % 81 % 0 % 1014,0 hPa 0,0 l/m 5,3 km/h (1 Bft) 0,00 h 0,00 h 8,7 km/h (2 Bft)
14.09.2011 04:00 21,0 C 13,2 C 0,0 UV-I 0,0 C 55 % 82 % 0 % 1014,4 hPa 0,0 l/m 5,2 km/h (1 Bft) 0,00 h 0,00 h 8,4 km/h (2 Bft)
14.09.2011 05:00 21,0 C 12,8 C 0,0 UV-I 0,0 C 55 % 82 % 0 % 1014,5 hPa 0,0 l/m 3,3 km/h (1 Bft) 0,00 h 0,00 h 5,2 km/h (1 Bft)
14.09.2011 06:00 20,8 C 12,2 C 0,0 UV-I 0,0 C 55 % 83 % 0 % 1014,9 hPa 0,0 l/m 3,9 km/h (1 Bft) 0,00 h 0,00 h 6,5 km/h (2 Bft)
14.09.2011 07:00 20,7 C 11,7 C 0,0 UV-I 0,0 C 55 % 84 % 0 % 1015,7 hPa 0,0 l/m 3,8 km/h (1 Bft) 0,00 h 0,00 h 5,7 km/h (1 Bft)
14.09.2011 08:00 20,6 C 12,0 C 0,0 UV-I 0,7 C 55 % 83 % 18 % 1016,2 hPa 0,0 l/m 4,9 km/h (1 Bft) 0,17 h 0,00 h 7,7 km/h (2 Bft)
14.09.2011 09:00 20,7 C 13,4 C 0,4 UV-I 5,9 C 54 % 79 % 100 % 1016,9 hPa 0,0 l/m 5,3 km/h (1 Bft) 1,00 h 0,00 h 8,3 km/h (2 Bft)
14.09.2011 10:00 20,8 C 14,8 C 1,5 UV-I 6,0 C 54 % 74 % 100 % 1017,0 hPa 0,0 l/m 7,5 km/h (2 Bft) 1,00 h 0,00 h 11,4 km/h (2 Bft)
14.09.2011 11:00 20,5 C 16,1 C 2,5 UV-I 5,6 C 52 % 68 % 100 % 1017,5 hPa 0,0 l/m 8,9 km/h (2 Bft) 1,00 h 0,00 h 12,2 km/h (3 Bft)
14.09.2011 12:00 20,5 C 17,1 C 3,0 UV-I 4,9 C 51 % 61 % 100 % 1017,4 hPa 0,0 l/m 8,4 km/h (2 Bft) 1,00 h 0,00 h 11,4 km/h (2 Bft)
14.09.2011 13:00 21,1 C 18,3 C 4,3 UV-I 5,3 C 49 % 58 % 100 % 1017,7 hPa 0,0 l/m 10,3 km/h (2 Bft) 1,00 h 0,00 h 15,5 km/h (3 Bft)
14.09.2011 14:00 22,2 C 19,2 C 4,2 UV-I 5,6 C 47 % 55 % 100 % 1018,5 hPa 0,0 l/m 9,4 km/h (2 Bft) 1,00 h 0,00 h 12,5 km/h (3 Bft)
14.09.2011 15:00 22,8 C 18,9 C 1,9 UV-I 2,9 C 46 % 55 % 77 % 1018,3 hPa 0,0 l/m 8,0 km/h (2 Bft) 0,43 h 0,00 h 10,3 km/h (2 Bft)
14.09.2011 16:00 23,2 C 18,9 C 2,0 UV-I 3,1 C 45 % 56 % 82 % 1018,1 hPa 0,0 l/m 6,4 km/h (2 Bft) 0,63 h 0,00 h 8,0 km/h (2 Bft)
14.09.2011 17:00 22,9 C 18,2 C 0,6 UV-I 1,4 C 46 % 58 % 39 % 1018,2 hPa 0,0 l/m 5,5 km/h (1 Bft) 0,03 h 0,00 h 9,1 km/h (2 Bft)
14.09.2011 18:00 22,5 C 17,8 C 0,2 UV-I 0,4 C 47 % 61 % 10 % 1017,5 hPa 0,0 l/m 2,4 km/h (1 Bft) 0,00 h 0,00 h 5,0 km/h (1 Bft)
14.09.2011 19:00 22,2 C 17,0 C 0,0 UV-I 0,0 C 48 % 63 % 0 % 1017,5 hPa 0,0 l/m 1,1 km/h (1 Bft) 0,00 h 0,00 h 2,8 km/h (1 Bft)
14.09.2011 20:00 21,8 C 14,8 C 0,0 UV-I 0,0 C 49 % 70 % 0 % 1017,7 hPa 0,0 l/m 0,0 km/h (0 Bft) 0,00 h 0,00 h 0,0 km/h (0 Bft)
14.09.2011 21:00 21,3 C 12,9 C 0,0 UV-I 0,0 C 51 % 76 % 0 % 1018,1 hPa 0,0 l/m 0,0 km/h (0 Bft) 0,00 h 0,00 h 0,0 km/h (0 Bft)
14.09.2011 22:00 20,8 C 11,7 C 0,0 UV-I 0,0 C 52 % 82 % 0 % 1018,5 hPa 0,0 l/m 0,0 km/h (0 Bft) 0,00 h 0,00 h 0,0 km/h (0 Bft)
14.09.2011 23:00 20,5 C 11,3 C 0,0 UV-I 0,0 C 53 % 84 % 0 % 1018,4 hPa 0,0 l/m 0,0 km/h (0 Bft) 0,00 h 0,00 h 0,0 km/h (0 Bft)
15.09.2011 00:00 20,6 C 11,4 C 0,0 UV-I 0,0 C 54 % 85 % 0 % 1018,5 hPa 0,0 l/m 0,0 km/h (0 Bft) 0,00 h 0,00 h 0,0 km/h (0 Bft)
15.09.2011 01:00 20,7 C 12,0 C 0,0 UV-I 0,0 C 54 % 86 % 0 % 1018,8 hPa 0,0 l/m 0,1 km/h (0 Bft) 0,00 h 0,00 h 0,9 km/h (0 Bft)
15.09.2011 02:00 20,7 C 12,1 C 0,0 UV-I 0,0 C 54 % 86 % 0 % 1018,7 hPa 0,0 l/m 0,6 km/h (0 Bft) 0,00 h 0,00 h 2,1 km/h (1 Bft)
15.09.2011 03:00 20,6 C 11,8 C 0,0 UV-I 0,0 C 55 % 87 % 0 % 1018,8 hPa 0,0 l/m 0,7 km/h (0 Bft) 0,00 h 0,00 h 2,1 km/h (1 Bft)
15.09.2011 04:00 20,6 C 11,5 C 0,0 UV-I 0,0 C 55 % 89 % 0 % 1018,8 hPa 0,0 l/m 1,0 km/h (0 Bft) 0,00 h 0,00 h 3,3 km/h (1 Bft)
15.09.2011 05:00 20,5 C 11,2 C 0,0 UV-I 0,0 C 55 % 90 % 0 % 1018,9 hPa 0,0 l/m 0,4 km/h (0 Bft) 0,00 h 0,00 h 1,8 km/h (1 Bft)
15.09.2011 06:00 20,4 C 11,3 C 0,0 UV-I 0,0 C 56 % 91 % 0 % 1019,0 hPa 0,0 l/m 0,6 km/h (0 Bft) 0,00 h 0,00 h 2,4 km/h (1 Bft)
15.09.2011 07:00 20,4 C 11,7 C 0,0 UV-I 0,0 C 56 % 92 % 0 % 1019,4 hPa 0,0 l/m 2,2 km/h (1 Bft) 0,00 h 0,00 h 4,5 km/h (1 Bft)
15.09.2011 08:00 20,5 C 12,3 C 0,0 UV-I 0,0 C 57 % 92 % 1 % 1019,9 hPa 0,0 l/m 1,7 km/h (1 Bft) 0,00 h 0,00 h 4,1 km/h (1 Bft)
15.09.2011 09:00 20,6 C 13,2 C 0,3 UV-I 2,4 C 57 % 91 % 63 % 1020,4 hPa 0,0 l/m 1,8 km/h (1 Bft) 0,33 h 0,00 h 3,8 km/h (1 Bft)
15.09.2011 10:00 20,9 C 14,7 C 1,1 UV-I 5,2 C 57 % 88 % 100 % 1021,0 hPa 0,0 l/m 3,5 km/h (1 Bft) 1,00 h 0,00 h 6,5 km/h (2 Bft)
15.09.2011 11:00 21,2 C 16,0 C 1,3 UV-I 5,3 C 57 % 84 % 100 % 1021,5 hPa 0,0 l/m 2,5 km/h (1 Bft) 1,00 h 0,00 h 5,2 km/h (1 Bft)
15.09.2011 12:00 21,6 C 17,5 C 2,5 UV-I 6,3 C 56 % 77 % 100 % 1021,7 hPa 0,0 l/m 4,3 km/h (1 Bft) 1,00 h 0,00 h 7,4 km/h (2 Bft)
15.09.2011 13:00 22,4 C 18,9 C 4,2 UV-I 6,7 C 55 % 69 % 100 % 1022,0 hPa 0,0 l/m 5,1 km/h (1 Bft) 1,00 h 0,00 h 7,7 km/h (2 Bft)
15.09.2011 14:00 23,2 C 19,7 C 2,0 UV-I 4,4 C 52 % 61 % 84 % 1022,2 hPa 0,0 l/m 4,9 km/h (1 Bft) 0,63 h 0,00 h 8,5 km/h (2 Bft)
15.09.2011 15:00 23,1 C 18,7 C 0,8 UV-I 1,7 C 52 % 66 % 49 % 1021,6 hPa 0,0 l/m 5,3 km/h (1 Bft) 0,00 h 0,00 h 7,2 km/h (2 Bft)
15.09.2011 16:00 23,0 C 18,9 C 1,0 UV-I 2,1 C 53 % 64 % 59 % 1021,3 hPa 0,0 l/m 1,3 km/h (1 Bft) 0,03 h 0,00 h 2,0 km/h (1 Bft)
15.09.2011 17:00 23,2 C 19,9 C 1,0 UV-I 3,4 C 52 % 59 % 88 % 1021,3 hPa 0,0 l/m 2,0 km/h (1 Bft) 0,67 h 0,00 h 3,4 km/h (1 Bft)
15.09.2011 18:00 23,1 C 19,1 C 0,2 UV-I 0,5 C 52 % 61 % 13 % 1021,0 hPa 0,0 l/m 1,4 km/h (1 Bft) 0,00 h 0,00 h 2,6 km/h (1 Bft)
15.09.2011 19:00 22,8 C 17,5 C 0,0 UV-I 0,0 C 53 % 67 % 0 % 1020,8 hPa 0,0 l/m 1,9 km/h (1 Bft) 0,00 h 0,00 h 2,5 km/h (1 Bft)
15.09.2011 20:00 22,4 C 15,2 C 0,0 UV-I 0,0 C 54 % 75 % 0 % 1020,9 hPa 0,0 l/m 0,0 km/h (0 Bft) 0,00 h 0,00 h 0,0 km/h (0 Bft)
15.09.2011 21:00 22,0 C 13,3 C 0,0 UV-I 0,0 C 55 % 81 % 0 % 1020,8 hPa 0,0 l/m 0,0 km/h (0 Bft) 0,00 h 0,00 h 0,0 km/h (0 Bft)
15.09.2011 22:00 21,7 C 12,2 C 0,0 UV-I 0,0 C 56 % 85 % 0 % 1020,8 hPa 0,0 l/m 0,0 km/h (0 Bft) 0,00 h 0,00 h 0,0 km/h (0 Bft)
15.09.2011 23:00 21,5 C 11,4 C 0,0 UV-I 0,0 C 56 % 87 % 0 % 1020,9 hPa 0,0 l/m 0,0 km/h (0 Bft) 0,00 h 0,07 h 0,0 km/h (0 Bft)
16.09.2011 00:00 21,3 C 10,8 C 0,0 UV-I 0,0 C 57 % 89 % 0 % 1020,7 hPa 0,0 l/m 0,0 km/h (0 Bft) 0,00 h 0,00 h 0,0 km/h (0 Bft)
16.09.2011 01:00 21,1 C 10,2 C 0,0 UV-I 0,0 C 57 % 90 % 0 % 1020,6 hPa 0,0 l/m 0,0 km/h (0 Bft) 0,00 h 0,03 h 0,0 km/h (0 Bft)
16.09.2011 02:00 21,0 C 9,7 C 0,0 UV-I 0,0 C 57 % 90 % 0 % 1020,5 hPa 0,0 l/m 0,0 km/h (0 Bft) 0,00 h 0,00 h 0,0 km/h (0 Bft)
16.09.2011 03:00 20,8 C 9,5 C 0,0 UV-I 0,0 C 57 % 91 % 0 % 1020,2 hPa 0,0 l/m 0,0 km/h (0 Bft) 0,00 h 0,03 h 0,0 km/h (0 Bft)
16.09.2011 04:00 20,7 C 9,6 C 0,0 UV-I 0,0 C 56 % 92 % 0 % 1019,9 hPa 0,0 l/m 0,0 km/h (0 Bft) 0,00 h 0,03 h 0,0 km/h (0 Bft)
16.09.2011 05:00 20,6 C 9,0 C 0,0 UV-I 0,0 C 56 % 92 % 0 % 1019,4 hPa 0,0 l/m 0,0 km/h (0 Bft) 0,00 h 0,00 h 0,0 km/h (0 Bft)
16.09.2011 06:00 20,4 C 8,5 C 0,0 UV-I 0,0 C 56 % 92 % 0 % 1019,1 hPa 0,0 l/m 0,0 km/h (0 Bft) 0,00 h 0,00 h 0,0 km/h (0 Bft)
16.09.2011 07:00 20,3 C 8,0 C 0,0 UV-I 0,0 C 56 % 92 % 0 % 1018,8 hPa 0,0 l/m 0,0 km/h (0 Bft) 0,00 h 0,00 h 0,0 km/h (0 Bft)
16.09.2011 08:00 20,2 C 8,9 C 0,1 UV-I 0,9 C 56 % 93 % 26 % 1018,9 hPa 0,0 l/m 0,0 km/h (0 Bft) 0,23 h 0,03 h 0,3 km/h (0 Bft)
16.09.2011 09:00 20,3 C 11,4 C 0,5 UV-I 6,4 C 57 % 93 % 100 % 1018,4 hPa 0,0 l/m 0,5 km/h (0 Bft) 1,00 h 0,00 h 1,7 km/h (1 Bft)
16.09.2011 10:00 20,6 C 14,3 C 1,0 UV-I 6,8 C 57 % 90 % 100 % 1018,1 hPa 0,0 l/m 2,5 km/h (1 Bft) 1,00 h 0,00 h 5,4 km/h (1 Bft)
16.09.2011 11:00 20,9 C 16,9 C 2,1 UV-I 6,6 C 57 % 79 % 100 % 1017,7 hPa 0,0 l/m 4,0 km/h (1 Bft) 1,00 h 0,00 h 6,7 km/h (2 Bft)
16.09.2011 12:00 21,4 C 19,3 C 2,7 UV-I 6,3 C 56 % 63 % 100 % 1017,0 hPa 0,0 l/m 5,3 km/h (1 Bft) 1,00 h 0,00 h 7,7 km/h (2 Bft)
16.09.2011 13:00 22,1 C 20,5 C 2,4 UV-I 3,5 C 54 % 57 % 97 % 1016,6 hPa 0,0 l/m 6,7 km/h (2 Bft) 1,00 h 0,00 h 9,0 km/h (2 Bft)
16.09.2011 14:00 22,8 C 21,3 C 2,0 UV-I 2,9 C 52 % 56 % 84 % 1016,2 hPa 0,0 l/m 6,9 km/h (2 Bft) 0,70 h 0,00 h 9,9 km/h (2 Bft)
16.09.2011 15:00 23,0 C 20,9 C 0,6 UV-I 0,8 C 51 % 59 % 22 % 1014,8 hPa 0,0 l/m 4,3 km/h (1 Bft) 0,00 h 0,27 h 7,2 km/h (2 Bft)
16.09.2011 16:00 22,8 C 20,3 C 0,2 UV-I 0,2 C 53 % 62 % 6 % 1013,6 hPa 0,0 l/m 3,0 km/h (1 Bft) 0,00 h 0,00 h 5,7 km/h (1 Bft)
16.09.2011 17:00 22,7 C 20,6 C 0,4 UV-I 0,8 C 53 % 62 % 23 % 1012,8 hPa 0,0 l/m 5,1 km/h (1 Bft) 0,00 h 0,00 h 10,4 km/h (2 Bft)
16.09.2011 18:00 22,8 C 20,5 C 0,0 UV-I 0,1 C 54 % 64 % 2 % 1012,3 hPa 0,0 l/m 4,1 km/h (1 Bft) 0,00 h 0,00 h 6,8 km/h (2 Bft)
16.09.2011 19:00 22,7 C 19,5 C 0,0 UV-I 0,0 C 54 % 67 % 0 % 1011,8 hPa 0,0 l/m 4,3 km/h (1 Bft) 0,00 h 0,00 h 6,0 km/h (2 Bft)
16.09.2011 20:00 22,4 C 18,7 C 0,0 UV-I 0,0 C 55 % 70 % 0 % 1011,4 hPa 0,0 l/m 3,9 km/h (1 Bft) 0,00 h 0,00 h 6,4 km/h (2 Bft)
16.09.2011 21:00 22,2 C 18,4 C 0,0 UV-I 0,0 C 56 % 73 % 0 % 1011,1 hPa 0,0 l/m 4,9 km/h (1 Bft) 0,00 h 0,00 h 7,6 km/h (2 Bft)
16.09.2011 22:00 22,1 C 18,1 C 0,0 UV-I 0,0 C 57 % 75 % 0 % 1011,0 hPa 0,0 l/m 3,1 km/h (1 Bft) 0,00 h 0,00 h 5,5 km/h (1 Bft)
16.09.2011 23:00 22,0 C 17,3 C 0,0 UV-I 0,0 C 57 % 77 % 0 % 1011,0 hPa 0,0 l/m 0,5 km/h (0 Bft) 0,00 h 0,00 h 0,8 km/h (0 Bft)
17.09.2011 00:00 22,0 C 17,0 C 0,0 UV-I 0,0 C 58 % 80 % 0 % 1011,1 hPa 0,0 l/m 0,0 km/h (0 Bft) 0,00 h 0,00 h 0,0 km/h (0 Bft)
17.09.2011 01:00 21,9 C 16,2 C 0,0 UV-I 0,0 C 59 % 82 % 0 % 1011,0 hPa 0,0 l/m 0,1 km/h (0 Bft) 0,00 h 0,00 h 0,3 km/h (0 Bft)
17.09.2011 02:00 21,8 C 16,1 C 0,0 UV-I 0,0 C 59 % 85 % 0 % 1011,1 hPa 0,0 l/m 1,1 km/h (0 Bft) 0,00 h 0,03 h 3,6 km/h (1 Bft)
17.09.2011 03:00 21,7 C 16,5 C 0,0 UV-I 0,0 C 61 % 86 % 0 % 1010,9 hPa 0,0 l/m 1,9 km/h (1 Bft) 0,00 h 0,00 h 4,3 km/h (1 Bft)
17.09.2011 04:00 21,4 C 16,1 C 0,0 UV-I 0,0 C 61 % 86 % 0 % 1011,0 hPa 0,0 l/m 2,5 km/h (1 Bft) 0,00 h 0,03 h 4,8 km/h (1 Bft)
17.09.2011 05:00 21,1 C 15,3 C 0,0 UV-I 0,0 C 60 % 84 % 0 % 1011,0 hPa 0,0 l/m 1,3 km/h (1 Bft) 0,00 h 0,00 h 3,3 km/h (1 Bft)
17.09.2011 06:00 20,8 C 14,7 C 0,0 UV-I 0,0 C 59 % 84 % 0 % 1010,9 hPa 0,0 l/m 3,1 km/h (1 Bft) 0,00 h 0,00 h 4,8 km/h (1 Bft)
17.09.2011 07:00 20,6 C 14,1 C 0,0 UV-I 0,0 C 58 % 84 % 0 % 1010,8 hPa 0,0 l/m 2,6 km/h (1 Bft) 0,00 h 0,00 h 4,8 km/h (1 Bft)
17.09.2011 08:00 20,7 C 14,5 C 0,0 UV-I 0,4 C 58 % 84 % 11 % 1011,0 hPa 0,0 l/m 2,2 km/h (1 Bft) 0,00 h 0,00 h 5,1 km/h (1 Bft)
17.09.2011 09:00 20,6 C 15,5 C 0,4 UV-I 2,2 C 58 % 82 % 62 % 1011,0 hPa 0,0 l/m 3,9 km/h (1 Bft) 0,17 h 0,00 h 6,7 km/h (2 Bft)
17.09.2011 10:00 20,8 C 16,8 C 0,9 UV-I 3,7 C 58 % 78 % 96 % 1010,9 hPa 0,0 l/m 5,1 km/h (1 Bft) 1,00 h 0,00 h 7,1 km/h (2 Bft)
17.09.2011 11:00 21,1 C 18,0 C 1,2 UV-I 2,8 C 58 % 73 % 77 % 1010,8 hPa 0,0 l/m 5,1 km/h (1 Bft) 0,50 h 0,00 h 8,1 km/h (2 Bft)
17.09.2011 12:00 21,7 C 18,9 C 2,0 UV-I 4,4 C 57 % 68 % 98 % 1010,5 hPa 0,0 l/m 5,5 km/h (1 Bft) 1,00 h 0,00 h 8,0 km/h (2 Bft)
17.09.2011 13:00 22,1 C 19,0 C 1,8 UV-I 3,1 C 55 % 65 % 82 % 1010,5 hPa 0,0 l/m 5,6 km/h (1 Bft) 0,47 h 0,00 h 10,3 km/h (2 Bft)
17.09.2011 14:00 22,6 C 19,3 C 1,2 UV-I 2,4 C 54 % 63 % 64 % 1010,5 hPa 0,0 l/m 6,3 km/h (2 Bft) 0,20 h 0,00 h 8,9 km/h (2 Bft)
17.09.2011 15:00 22,6 C 19,2 C 0,9 UV-I 1,5 C 53 % 62 % 42 % 1009,7 hPa 0,0 l/m 6,4 km/h (2 Bft) 0,00 h 0,00 h 8,5 km/h (2 Bft)
17.09.2011 16:00 22,6 C 18,9 C 0,3 UV-I 0,6 C 53 % 63 % 18 % 1008,9 hPa 0,0 l/m 4,2 km/h (1 Bft) 0,00 h 0,00 h 7,4 km/h (2 Bft)
17.09.2011 17:00 22,5 C 18,4 C 0,1 UV-I 0,2 C 53 % 65 % 5 % 1008,7 hPa 0,0 l/m 2,3 km/h (1 Bft) 0,00 h 0,00 h 3,9 km/h (1 Bft)
17.09.2011 18:00 22,3 C 17,7 C 0,0 UV-I 0,0 C 54 % 67 % 0 % 1008,4 hPa 0,0 l/m 1,4 km/h (1 Bft) 0,00 h 0,00 h 3,1 km/h (1 Bft)
17.09.2011 19:00 22,1 C 16,9 C 0,0 UV-I 0,0 C 54 % 69 % 0 % 1008,0 hPa 0,0 l/m 0,5 km/h (0 Bft) 0,00 h 0,00 h 1,0 km/h (0 Bft)
17.09.2011 20:00 21,9 C 16,5 C 0,0 UV-I 0,0 C 55 % 71 % 0 % 1007,7 hPa 0,0 l/m 0,6 km/h (0 Bft) 0,00 h 0,00 h 1,7 km/h (1 Bft)
17.09.2011 21:00 21,8 C 16,1 C 0,0 UV-I 0,0 C 56 % 72 % 0 % 1007,1 hPa 0,0 l/m 0,5 km/h (0 Bft) 0,00 h 0,00 h 2,4 km/h (1 Bft)
17.09.2011 22:00 21,8 C 15,8 C 0,0 UV-I 0,0 C 56 % 74 % 0 % 1006,5 hPa 0,0 l/m 0,9 km/h (0 Bft) 0,00 h 0,00 h 3,0 km/h (1 Bft)
17.09.2011 23:00 21,8 C 15,6 C 0,0 UV-I 0,0 C 56 % 74 % 0 % 1005,9 hPa 0,0 l/m 1,5 km/h (1 Bft) 0,00 h 0,00 h 2,8 km/h (1 Bft)
18.09.2011 00:00 21,6 C 15,5 C 0,0 UV-I 0,0 C 56 % 76 % 0 % 1005,2 hPa 0,0 l/m 4,4 km/h (1 Bft) 0,00 h 0,27 h 6,9 km/h (2 Bft)
18.09.2011 01:00 21,5 C 14,9 C 0,0 UV-I 0,0 C 57 % 80 % 0 % 1004,1 hPa 0,0 l/m 3,9 km/h (1 Bft) 0,00 h 0,13 h 7,2 km/h (2 Bft)
18.09.2011 02:00 21,4 C 13,3 C 0,0 UV-I 0,0 C 57 % 85 % 0 % 1004,1 hPa 2,1 l/m 5,7 km/h (1 Bft) 0,00 h 0,90 h 8,4 km/h (2 Bft)
18.09.2011 03:00 21,2 C 11,7 C 0,0 UV-I 0,0 C 58 % 88 % 0 % 1003,8 hPa 1,1 l/m 0,7 km/h (0 Bft) 0,00 h 0,70 h 1,7 km/h (1 Bft)
18.09.2011 04:00 21,1 C 11,3 C 0,0 UV-I 0,0 C 58 % 89 % 0 % 1003,2 hPa 0,0 l/m 0,0 km/h (0 Bft) 0,00 h 0,00 h 0,4 km/h (0 Bft)
18.09.2011 05:00 21,0 C 11,3 C 0,0 UV-I 0,0 C 58 % 91 % 0 % 1002,7 hPa 0,0 l/m 1,3 km/h (1 Bft) 0,00 h 0,00 h 3,3 km/h (1 Bft)
18.09.2011 06:00 21,0 C 11,5 C 0,0 UV-I 0,0 C 58 % 92 % 0 % 1002,2 hPa 0,0 l/m 1,4 km/h (1 Bft) 0,00 h 0,00 h 3,5 km/h (1 Bft)
18.09.2011 07:00 20,9 C 11,6 C 0,0 UV-I 0,0 C 58 % 92 % 0 % 1002,2 hPa 0,0 l/m 0,7 km/h (0 Bft) 0,00 h 0,10 h 2,2 km/h (1 Bft)
18.09.2011 08:00 20,9 C 11,8 C 0,0 UV-I 0,0 C 58 % 92 % 0 % 1002,3 hPa 0,0 l/m 1,2 km/h (1 Bft) 0,00 h 0,00 h 3,0 km/h (1 Bft)
18.09.2011 09:00 20,9 C 12,2 C 0,0 UV-I 0,1 C 58 % 91 % 2 % 1002,6 hPa 0,0 l/m 2,1 km/h (1 Bft) 0,00 h 0,00 h 4,4 km/h (1 Bft)
18.09.2011 10:00 20,9 C 12,6 C 0,6 UV-I 1,7 C 57 % 89 % 46 % 1002,8 hPa 0,0 l/m 4,2 km/h (1 Bft) 0,40 h 0,00 h 5,9 km/h (2 Bft)
18.09.2011 11:00 21,0 C 13,8 C 1,3 UV-I 4,0 C 55 % 83 % 95 % 1003,2 hPa 0,0 l/m 7,1 km/h (2 Bft) 0,90 h 0,00 h 11,3 km/h (2 Bft)
18.09.2011 12:00 21,2 C 14,6 C 1,1 UV-I 3,6 C 54 % 76 % 72 % 1003,3 hPa 0,0 l/m 6,0 km/h (2 Bft) 0,53 h 0,00 h 10,0 km/h (2 Bft)
18.09.2011 13:00 21,5 C 14,9 C 1,8 UV-I 3,0 C 52 % 71 % 81 % 1003,6 hPa 0,0 l/m 6,7 km/h (2 Bft) 0,67 h 0,00 h 11,2 km/h (2 Bft)
18.09.2011 14:00 22,1 C 15,8 C 1,6 UV-I 2,9 C 50 % 68 % 76 % 1004,1 hPa 0,0 l/m 7,5 km/h (2 Bft) 0,47 h 0,00 h 11,3 km/h (2 Bft)
18.09.2011 15:00 22,5 C 15,7 C 1,3 UV-I 1,7 C 49 % 68 % 43 % 1004,3 hPa 0,0 l/m 7,0 km/h (2 Bft) 0,27 h 0,30 h 11,0 km/h (2 Bft)
18.09.2011 16:00 22,9 C 16,3 C 2,3 UV-I 2,9 C 48 % 67 % 81 % 1004,1 hPa 0,1 l/m 7,0 km/h (2 Bft) 0,67 h 0,07 h 12,4 km/h (3 Bft)
18.09.2011 17:00 23,2 C 16,6 C 1,3 UV-I 2,6 C 47 % 63 % 74 % 1004,4 hPa 0,0 l/m 8,0 km/h (2 Bft) 0,50 h 0,00 h 9,8 km/h (2 Bft)
18.09.2011 18:00 22,7 C 15,0 C 0,1 UV-I 0,2 C 47 % 68 % 4 % 1004,5 hPa 0,0 l/m 3,6 km/h (1 Bft) 0,00 h 0,00 h 5,5 km/h (1 Bft)
18.09.2011 19:00 22,1 C 13,9 C 0,0 UV-I 0,0 C 49 % 73 % 0 % 1004,8 hPa 0,0 l/m 2,6 km/h (1 Bft) 0,00 h 0,00 h 5,5 km/h (1 Bft)
18.09.2011 20:00 21,5 C 13,2 C 0,0 UV-I 0,0 C 51 % 78 % 0 % 1005,0 hPa 0,0 l/m 3,0 km/h (1 Bft) 0,00 h 0,30 h 5,0 km/h (1 Bft)
18.09.2011 21:00 21,2 C 12,4 C 0,0 UV-I 0,0 C 52 % 82 % 0 % 1005,2 hPa 0,0 l/m 0,5 km/h (0 Bft) 0,00 h 0,13 h 1,3 km/h (1 Bft)
18.09.2011 22:00 21,1 C 12,6 C 0,0 UV-I 0,0 C 53 % 84 % 0 % 1005,4 hPa 0,1 l/m 2,9 km/h (1 Bft) 0,00 h 0,37 h 5,8 km/h (2 Bft)
18.09.2011 23:00 21,0 C 12,4 C 0,0 UV-I 0,0 C 54 % 85 % 0 % 1005,2 hPa 0,0 l/m 0,7 km/h (0 Bft) 0,00 h 0,00 h 2,6 km/h (1 Bft)
Min-Datum _ 16.09.11 16.09.11 12.09.11 12.09.11 14.09.11 14.09.11 12.09.11 18.09.11 - 14.09.11 - - 12.09.11
_ Min-Zeit 07:06 07:30 00:00 00:00 16:18 15:32 00:00 07:24 - 19:46 - - 00:04
Minimum _ 20,2 C 7,9 C 0,0 UV-I 0,0 C 45 % 53 % 0 % 1002,0 hPa - 0,0 km/h (0 Bft) - - 0,0 km/h (0 Bft)
Max-Datum _ 13.09.11 12.09.11 14.09.11 16.09.11 12.09.11 16.09.11 12.09.11 15.09.11 18.09.11 12.09.11 12.09.11 15.09.11 12.09.11
_ Max-Zeit 17:04 14:20 13:40 10:10 22:48 08:38 09:00 14:04 02:02 15:30 08:56 23:06 16:02
Maximum _ 23,6 C 23,0 C 5,0 UV-I 7,8 C 67 % 94 % 100 % 1022,4 hPa 2,1 l/m 17,3 km/h
O-SO (3 Bft)
0,03 h 0,03 h 43,1 km/h
SW (6 Bft)
Durchschnitt _ 21,6 C 15,8 C 0,6 UV-I 1,3 C 56 % 76 % 28 % 1012,7 hPa #3,5 l/m 4,1 km/h (1 Bft) #35:00 h #3:48 h 6,6 km/h (2 Bft)
© 2012 W. Hausmann